Columbia/McEntire ANGS, South Carolina
Current Conditions -  °F | °C
As of 10:58 PM on Wednesday 22 Oct 2014 (Local Time) from KMMT Reporting Station
Clear Clear  
Wind Chill: 53°   Ceiling: Unl
Heat Index: 53°   Visibility: 10mi
Dew Point: 41°   Wind: 9mph
Humidity: 64%   Direction: 350°N
Pressure: 30.09"   Gusts: NA
Location:  33.91°N, 80.8°W
Report Text: KMMT 230258Z 35008KT 10SM CLR 12/05 A3009 RMK AO2A SLP192 T01180052 52014
Loading
Personal Weather Stations






























Interactive Weather Map
Tropical Storm Tracking
New forecast layout! Learn more

10-Day Weather Forecast

Advertisements
Track Severe Weather on mobile